Time;durP1;ratioP1;P1;durP2;ratioP2;P2;SDS_P1;SDS_P2;PMS_P1;PMS_P2;Temp;Humidity;BMP_temperature;BMP_pressure;BME280_temperature;BME280_humidity;BME280_pressure;Samples;Min_cycle;Max_cycle;Signal;HPM_P1;HPM_P2
2024/02/17 00:04:39;;;;;;;5.97;5.97;;;13.00;99.90;;;;;;10425342;28;20295;-79
2024/02/17 00:09:44;;;;;;;6.13;6.13;;;13.00;99.90;;;;;;10435707;28;20228;-78
2024/02/17 00:14:47;;;;;;;6.30;6.30;;;12.90;99.90;;;;;;10430309;28;20204;-79
2024/02/17 00:19:49;;;;;;;5.73;5.73;;;12.90;99.90;;;;;;10398569;28;20238;-78
2024/02/17 00:24:53;;;;;;;6.10;6.10;;;13.00;99.90;;;;;;10398711;28;20229;-78
2024/02/17 00:29:55;;;;;;;5.70;5.70;;;13.00;99.90;;;;;;10405355;28;20249;-79
2024/02/17 00:34:58;;;;;;;5.40;5.40;;;12.90;99.90;;;;;;10389066;28;20207;-78
2024/02/17 00:40:03;;;;;;;5.60;5.60;;;13.00;99.90;;;;;;10389354;28;20233;-80
2024/02/17 00:45:06;;;;;;;6.20;6.20;;;12.90;99.90;;;;;;10429926;28;20217;-79
2024/02/17 00:50:09;;;;;;;6.00;6.00;;;13.00;99.90;;;;;;10426646;28;20217;-79
2024/02/17 00:55:13;;;;;;;6.00;6.00;;;13.00;99.90;;;;;;10434497;28;20685;-79
2024/02/17 01:00:16;;;;;;;5.40;5.40;;;13.00;99.90;;;;;;10427661;28;20589;-80
2024/02/17 01:05:19;;;;;;;5.20;5.20;;;13.00;99.90;;;;;;10433868;28;20217;-79
2024/02/17 01:10:23;;;;;;;5.60;5.60;;;13.00;99.90;;;;;;10426735;28;20239;-77
2024/02/17 01:15:26;;;;;;;5.90;5.90;;;13.00;99.90;;;;;;10432240;28;20205;-79
2024/02/17 01:20:28;;;;;;;6.00;6.00;;;13.00;99.90;;;;;;10424968;28;20283;-79
2024/02/17 01:25:32;;;;;;;5.63;5.63;;;13.00;99.90;;;;;;10425071;28;20245;-80
2024/02/17 01:30:35;;;;;;;5.90;5.90;;;13.00;99.90;;;;;;10424852;28;20229;-81
2024/02/17 01:35:37;;;;;;;6.10;6.10;;;13.00;99.90;;;;;;10432001;28;20246;-80
2024/02/17 01:40:42;;;;;;;6.10;6.10;;;13.00;99.90;;;;;;10434222;28;20226;-79
2024/02/17 01:45:45;;;;;;;6.10;6.10;;;13.00;99.90;;;;;;10416387;28;20221;-79
2024/02/17 01:50:48;;;;;;;6.27;6.27;;;13.00;99.90;;;;;;10420071;28;20225;-78
2024/02/17 01:55:53;;;;;;;5.90;5.90;;;13.00;99.90;;;;;;10436494;28;20202;-77
2024/02/17 02:00:55;;;;;;;6.00;6.00;;;13.00;99.90;;;;;;10431951;28;20232;-80
2024/02/17 02:05:58;;;;;;;6.20;6.20;;;13.00;99.90;;;;;;10431177;28;20283;-80
2024/02/17 02:11:02;;;;;;;6.00;6.00;;;13.00;99.90;;;;;;10435956;28;20247;-80
2024/02/17 02:16:05;;;;;;;6.00;6.00;;;13.00;99.90;;;;;;10434434;28;20312;-79
2024/02/17 02:21:08;;;;;;;5.90;5.90;;;13.00;99.90;;;;;;10432938;28;20224;-79
2024/02/17 02:26:12;;;;;;;6.10;6.10;;;13.00;99.90;;;;;;10434970;28;20240;-80
2024/02/17 02:31:14;;;;;;;6.07;6.07;;;13.00;99.90;;;;;;10432945;28;20221;-80
2024/02/17 02:36:17;;;;;;;6.10;6.10;;;13.00;99.90;;;;;;10437049;28;20201;-79
2024/02/17 02:41:21;;;;;;;6.10;6.10;;;12.90;99.90;;;;;;10439913;28;20282;-79
2024/02/17 02:46:24;;;;;;;6.00;6.00;;;12.80;99.90;;;;;;10420506;28;20261;-79
2024/02/17 02:51:26;;;;;;;6.40;6.40;;;12.70;99.90;;;;;;10410924;28;20221;-80
2024/02/17 02:56:30;;;;;;;6.33;6.33;;;12.70;99.90;;;;;;10434285;28;20194;-79
2024/02/17 03:01:33;;;;;;;6.63;6.63;;;12.70;99.90;;;;;;10430824;28;20225;-80
2024/02/17 03:06:36;;;;;;;6.40;6.40;;;12.60;99.90;;;;;;10436479;28;20608;-80
2024/02/17 03:11:41;;;;;;;6.60;6.60;;;12.60;99.90;;;;;;10429563;28;20229;-79
2024/02/17 03:16:44;;;;;;;6.53;6.53;;;12.60;99.90;;;;;;10436789;28;20190;-79
2024/02/17 03:21:47;;;;;;;6.70;6.70;;;12.50;99.90;;;;;;10429015;28;20237;-80
2024/02/17 03:26:52;;;;;;;6.47;6.47;;;12.50;99.90;;;;;;10436560;28;20225;-79
2024/02/17 03:31:54;;;;;;;6.10;6.10;;;12.50;99.90;;;;;;10413560;28;20654;-81
2024/02/17 03:36:57;;;;;;;6.30;6.30;;;12.50;99.90;;;;;;10434410;28;20217;-80
2024/02/17 03:42:01;;;;;;;5.80;5.80;;;12.40;99.90;;;;;;10426514;28;20343;-80
2024/02/17 03:47:03;;;;;;;6.13;6.13;;;12.40;99.90;;;;;;10433126;28;20217;-80
2024/02/17 03:52:06;;;;;;;6.37;6.37;;;12.40;99.90;;;;;;10425923;28;20225;-80
2024/02/17 03:57:10;;;;;;;6.03;6.03;;;12.40;99.90;;;;;;10432264;28;20263;-77
2024/02/17 04:02:13;;;;;;;6.17;6.17;;;12.40;99.90;;;;;;10409385;28;20225;-79
2024/02/17 04:07:15;;;;;;;6.80;6.80;;;12.40;99.90;;;;;;10424260;28;20263;-79
2024/02/17 04:12:19;;;;;;;7.00;7.00;;;12.40;99.90;;;;;;10430919;28;20549;-79
2024/02/17 04:17:22;;;;;;;6.67;6.67;;;12.30;99.90;;;;;;10434945;28;20220;-79
2024/02/17 04:22:25;;;;;;;6.47;6.47;;;12.30;99.90;;;;;;10421309;28;20671;-77
2024/02/17 04:27:29;;;;;;;6.07;6.07;;;12.30;99.90;;;;;;10433860;28;20209;-80
2024/02/17 04:32:31;;;;;;;6.00;6.00;;;12.30;99.90;;;;;;10421061;28;20260;-81
2024/02/17 04:37:34;;;;;;;6.30;6.30;;;12.30;99.90;;;;;;10417778;28;20212;-79
2024/02/17 04:42:38;;;;;;;5.80;5.80;;;12.30;99.90;;;;;;10422259;28;20217;-80
2024/02/17 04:47:40;;;;;;;6.40;6.40;;;12.30;99.90;;;;;;10419477;28;20232;-79
2024/02/17 04:52:43;;;;;;;5.60;5.60;;;12.30;99.90;;;;;;10421522;28;20228;-77
2024/02/17 04:57:46;;;;;;;5.30;5.30;;;12.40;99.90;;;;;;10435313;28;20512;-79
2024/02/17 05:02:49;;;;;;;5.67;5.67;;;12.40;99.90;;;;;;10420444;28;20221;-77
2024/02/17 05:07:52;;;;;;;5.70;5.70;;;12.30;99.90;;;;;;10431755;28;20237;-80
2024/02/17 05:12:55;;;;;;;5.00;5.00;;;12.30;99.90;;;;;;10428154;28;20249;-80
2024/02/17 05:17:58;;;;;;;5.10;5.10;;;12.40;99.90;;;;;;10445723;28;20206;-80
2024/02/17 05:23:00;;;;;;;5.10;5.10;;;12.40;99.90;;;;;;10456333;22;20287;-75
2024/02/17 05:28:05;;;;;;;4.60;4.60;;;12.40;99.90;;;;;;10455187;28;20209;-75
2024/02/17 05:33:08;;;;;;;5.10;5.10;;;12.40;99.90;;;;;;10444120;28;20206;-74
2024/02/17 05:38:10;;;;;;;4.90;4.90;;;12.40;99.90;;;;;;10424187;28;20678;-75
2024/02/17 05:43:14;;;;;;;4.17;4.17;;;12.40;99.90;;;;;;10443170;28;20219;-75
2024/02/17 05:48:17;;;;;;;4.30;4.30;;;12.40;99.90;;;;;;10420665;28;20200;-73
2024/02/17 05:53:20;;;;;;;4.37;4.37;;;12.50;99.90;;;;;;10445802;28;20629;-75
2024/02/17 05:58:24;;;;;;;4.00;4.00;;;12.50;99.90;;;;;;10423122;28;20244;-75
2024/02/17 06:03:27;;;;;;;3.73;3.73;;;12.50;99.90;;;;;;10451747;28;20233;-75
2024/02/17 06:08:29;;;;;;;3.63;3.63;;;12.50;99.90;;;;;;10440802;28;20221;-75
2024/02/17 06:13:33;;;;;;;4.07;4.07;;;12.40;99.90;;;;;;10420701;28;20275;-75
2024/02/17 06:23:57;;;;;;;3.80;3.80;;;12.40;99.90;;;;;;10422621;28;20233;-74
2024/02/17 06:29:03;;;;;;;3.60;3.60;;;12.30;99.90;;;;;;10442242;28;20202;-72
2024/02/17 06:34:05;;;;;;;3.60;3.60;;;12.30;99.90;;;;;;10423074;28;20220;-75
2024/02/17 06:39:08;;;;;;;3.13;3.13;;;12.20;99.90;;;;;;10425553;28;20190;-75
2024/02/17 06:44:11;;;;;;;3.50;3.50;;;12.10;99.90;;;;;;10419746;28;20225;-76
2024/02/17 06:49:14;;;;;;;3.30;3.30;;;12.10;99.90;;;;;;10443618;28;20202;-75
2024/02/17 06:54:16;;;;;;;3.53;3.53;;;12.10;99.90;;;;;;10421026;28;20640;-75
2024/02/17 06:59:20;;;;;;;3.20;3.20;;;12.10;99.90;;;;;;10442725;28;20225;-76
2024/02/17 07:04:23;;;;;;;3.10;3.10;;;12.10;99.90;;;;;;10420224;28;20224;-73
2024/02/17 07:09:25;;;;;;;3.10;3.10;;;12.00;99.90;;;;;;10434573;28;20422;-74
2024/02/17 07:14:29;;;;;;;2.60;2.60;;;12.00;99.90;;;;;;10416136;28;20244;-74
2024/02/17 07:19:32;;;;;;;2.50;2.50;;;11.90;99.90;;;;;;10444004;28;20202;-75
2024/02/17 07:24:34;;;;;;;3.00;3.00;;;11.90;99.90;;;;;;10398071;28;20275;-74
2024/02/17 07:29:39;;;;;;;2.20;2.20;;;11.80;99.90;;;;;;10444304;28;20186;-73
2024/02/17 07:34:42;;;;;;;2.13;2.13;;;11.80;99.90;;;;;;10408137;28;20591;-74
2024/02/17 07:39:45;;;;;;;2.90;2.90;;;11.80;99.90;;;;;;10443311;28;20229;-75
2024/02/17 07:44:49;;;;;;;2.57;2.57;;;11.80;99.90;;;;;;10416559;28;20205;-75
2024/02/17 07:49:51;;;;;;;2.10;2.10;;;11.90;99.90;;;;;;10443243;28;20190;-73
2024/02/17 07:54:54;;;;;;;2.40;2.40;;;11.90;99.90;;;;;;10415695;28;20197;-75
2024/02/17 07:59:57;;;;;;;2.60;2.60;;;11.90;99.90;;;;;;10443444;28;20275;-75
2024/02/17 08:05:00;;;;;;;2.10;2.10;;;11.90;99.90;;;;;;10413077;28;20213;-74
2024/02/17 08:10:03;;;;;;;2.03;2.03;;;11.90;99.90;;;;;;10445028;28;20217;-74
2024/02/17 08:15:08;;;;;;;2.07;2.07;;;12.20;99.90;;;;;;10408745;28;20232;-76
2024/02/17 08:20:11;;;;;;;1.80;1.80;;;12.40;99.90;;;;;;10444815;28;20279;-75
2024/02/17 08:25:14;;;;;;;1.60;1.60;;;12.50;99.90;;;;;;10412349;28;20224;-74
2024/02/17 08:30:18;;;;;;;1.00;1.00;;;12.60;99.90;;;;;;10444256;28;20717;-75
2024/02/17 08:35:20;;;;;;;1.00;1.00;;;12.70;99.90;;;;;;10411215;28;20192;-76
2024/02/17 08:40:24;;;;;;;1.17;1.17;;;12.70;99.90;;;;;;10444430;28;20750;-72
2024/02/17 08:45:28;;;;;;;0.90;0.90;;;12.70;99.90;;;;;;10435485;28;20469;-77
2024/02/17 08:50:31;;;;;;;0.70;0.70;;;12.70;99.90;;;;;;10463157;28;20225;-75
2024/02/17 08:55:33;;;;;;;0.83;0.83;;;12.80;99.90;;;;;;10459912;28;20221;-78
2024/02/17 09:00:38;;;;;;;0.60;0.60;;;12.90;99.90;;;;;;10423683;28;20213;-77
2024/02/17 09:05:40;;;;;;;0.80;0.80;;;13.00;99.90;;;;;;10443111;28;20232;-77
2024/02/17 09:10:43;;;;;;;0.70;0.70;;;13.10;99.90;;;;;;10424674;28;20220;-79
2024/02/17 09:15:48;;;;;;;0.80;0.80;;;13.10;99.90;;;;;;10441919;28;20216;-77
2024/02/17 09:20:51;;;;;;;0.70;0.70;;;13.20;99.90;;;;;;10421902;28;20233;-77
2024/02/17 09:25:53;;;;;;;0.80;0.80;;;13.10;99.90;;;;;;10439344;28;20231;-78
2024/02/17 09:30:57;;;;;;;0.70;0.70;;;13.10;99.90;;;;;;10422577;28;20714;-77
2024/02/17 09:36:00;;;;;;;0.60;0.60;;;13.20;99.90;;;;;;10459211;28;20197;-76
2024/02/17 09:41:03;;;;;;;0.50;0.50;;;13.30;99.90;;;;;;10422261;28;20213;-78
2024/02/17 09:46:07;;;;;;;0.60;0.60;;;13.30;99.90;;;;;;10461099;28;20220;-79
2024/02/17 09:51:10;;;;;;;0.53;0.53;;;13.40;99.90;;;;;;10421119;28;20217;-78
2024/02/17 09:56:12;;;;;;;0.60;0.60;;;13.70;99.90;;;;;;10455767;28;20247;-79
2024/02/17 10:01:16;;;;;;;0.40;0.40;;;13.80;99.90;;;;;;10413222;28;20225;-79
2024/02/17 10:06:19;;;;;;;0.43;0.43;;;13.90;99.90;;;;;;10373364;28;20221;-77
2024/02/17 10:11:22;;;;;;;0.40;0.40;;;13.90;99.90;;;;;;10372772;28;20214;-79
2024/02/17 10:16:26;;;;;;;0.40;0.40;;;13.70;99.90;;;;;;10454904;28;20197;-76
2024/02/17 10:21:28;;;;;;;0.50;0.50;;;13.50;99.90;;;;;;10413918;28;20222;-76
2024/02/17 10:26:31;;;;;;;0.40;0.40;;;13.50;99.90;;;;;;10454086;28;20283;-76
2024/02/17 10:31:34;;;;;;;0.40;0.40;;;13.70;99.90;;;;;;10409469;28;20230;-78
2024/02/17 10:36:37;;;;;;;0.40;0.40;;;13.70;99.90;;;;;;10433011;28;20186;-78
2024/02/17 10:41:40;;;;;;;0.40;0.40;;;13.70;99.90;;;;;;10422328;28;20205;-78
2024/02/17 10:46:48;;;;;;;0.20;0.20;;;13.70;99.90;;;;;;10430121;28;20261;-77
2024/02/17 10:51:56;;;;;;;0.60;0.60;;;13.70;99.90;;;;;;10399599;28;20213;-78
2024/02/17 10:57:03;;;;;;;0.50;0.50;;;13.80;99.90;;;;;;10420465;28;20185;-77
2024/02/17 11:02:08;;;;;;;0.47;0.47;;;14.00;99.90;;;;;;10407363;28;20242;-78
2024/02/17 11:07:11;;;;;;;0.57;0.57;;;14.00;99.90;;;;;;10391650;28;20213;-77
2024/02/17 11:12:33;;;;;;;0.50;0.50;;;14.00;99.90;;;;;;10386636;28;20225;-76
2024/02/17 11:17:40;;;;;;;0.60;0.60;;;14.20;99.90;;;;;;10401837;28;20182;-75
2024/02/17 11:22:44;;;;;;;0.40;0.40;;;14.40;99.90;;;;;;10443213;28;20221;-78
2024/02/17 11:27:46;;;;;;;0.50;0.50;;;14.40;99.90;;;;;;10461001;22;20235;-82
2024/02/17 11:32:57;;;;;;;0.40;0.40;;;14.40;99.90;;;;;;10432163;28;20270;-79
2024/02/17 11:37:59;;;;;;;0.50;0.50;;;14.40;99.90;;;;;;10448356;28;20678;-81
2024/02/17 11:43:03;;;;;;;0.40;0.40;;;14.20;99.90;;;;;;10384582;28;20238;-81
2024/02/17 11:48:07;;;;;;;0.50;0.50;;;14.00;99.90;;;;;;10445950;28;20228;-80
2024/02/17 11:53:10;;;;;;;0.50;0.50;;;14.00;99.90;;;;;;10405396;28;20198;-80
2024/02/17 11:58:21;;;;;;;0.40;0.40;;;14.10;99.90;;;;;;10449218;28;20197;-80
2024/02/17 12:03:28;;;;;;;0.60;0.60;;;14.30;99.90;;;;;;10393121;28;20757;-81
2024/02/17 12:08:31;;;;;;;0.37;0.37;;;14.50;99.90;;;;;;10442104;28;20570;-79
2024/02/17 12:13:33;;;;;;;0.40;0.40;;;14.60;99.90;;;;;;10369036;28;20344;-79
2024/02/17 12:18:38;;;;;;;0.20;0.20;;;14.60;99.90;;;;;;10421143;28;20206;-77
2024/02/17 12:23:43;;;;;;;0.50;0.50;;;14.60;99.90;;;;;;10386489;28;20291;-77
2024/02/17 12:28:46;;;;;;;0.50;0.50;;;14.50;99.90;;;;;;10423529;28;20229;-79
2024/02/17 12:33:51;;;;;;;0.40;0.40;;;14.40;99.90;;;;;;10380236;28;20228;-79
2024/02/17 12:38:58;;;;;;;0.10;0.10;;;14.30;99.90;;;;;;10425725;28;20197;-77
2024/02/17 12:44:01;;;;;;;0.50;0.50;;;14.10;99.90;;;;;;10386075;28;20707;-79
2024/02/17 12:49:06;;;;;;;0.50;0.50;;;14.10;99.90;;;;;;10421138;28;20236;-82
2024/02/17 12:54:09;;;;;;;0.30;0.30;;;14.00;99.90;;;;;;10385727;28;20221;-79
2024/02/17 12:59:12;;;;;;;0.40;0.40;;;13.90;99.90;;;;;;10426076;28;20190;-77
2024/02/17 13:04:16;;;;;;;0.50;0.50;;;13.90;99.90;;;;;;10402842;28;20559;-77
2024/02/17 13:09:18;;;;;;;0.40;0.40;;;13.80;99.90;;;;;;10344371;28;20215;-78
2024/02/17 13:14:21;;;;;;;0.40;0.40;;;13.90;99.90;;;;;;10362313;28;20218;-78
2024/02/17 13:19:25;;;;;;;0.40;0.40;;;14.10;99.90;;;;;;10421674;28;20194;-80
2024/02/17 13:24:27;;;;;;;0.40;0.40;;;14.20;99.90;;;;;;10349966;28;20227;-77
2024/02/17 13:29:30;;;;;;;0.30;0.30;;;14.30;99.90;;;;;;10386181;28;20739;-80
2024/02/17 13:34:34;;;;;;;0.30;0.30;;;14.30;99.90;;;;;;10394701;28;20222;-77
2024/02/17 13:39:36;;;;;;;0.40;0.40;;;14.10;99.90;;;;;;10391870;28;20249;-79
2024/02/17 13:44:38;;;;;;;0.40;0.40;;;14.10;99.90;;;;;;10391723;28;20218;-78
2024/02/17 13:49:42;;;;;;;0.30;0.30;;;14.00;99.90;;;;;;10388140;28;20275;-79
2024/02/17 13:54:45;;;;;;;0.30;0.30;;;14.00;99.90;;;;;;10388040;28;20229;-79
2024/02/17 13:59:47;;;;;;;0.40;0.40;;;14.00;99.90;;;;;;10393858;28;20190;-78
2024/02/17 14:04:51;;;;;;;0.30;0.30;;;14.10;99.90;;;;;;10398023;28;20264;-80
2024/02/17 14:09:54;;;;;;;0.40;0.40;;;14.20;99.90;;;;;;10367563;28;20218;-76
2024/02/17 14:14:59;;;;;;;0.33;0.33;;;14.30;99.90;;;;;;10355822;28;20268;-77
2024/02/17 14:20:03;;;;;;;0.40;0.40;;;14.40;99.90;;;;;;10394729;28;20256;-77
2024/02/17 14:25:07;;;;;;;0.30;0.30;;;14.40;99.90;;;;;;10371595;28;20233;-76
2024/02/17 14:30:11;;;;;;;0.37;0.37;;;14.50;99.90;;;;;;10379028;28;20245;-78
2024/02/17 14:35:15;;;;;;;0.50;0.50;;;14.50;99.90;;;;;;10373378;28;20291;-77
2024/02/17 14:40:19;;;;;;;0.50;0.50;;;14.50;99.90;;;;;;10389561;28;20626;-77
2024/02/17 14:45:23;;;;;;;0.50;0.50;;;14.60;99.90;;;;;;10437148;28;20223;-77
2024/02/17 14:50:26;;;;;;;0.50;0.50;;;14.70;99.90;;;;;;10410378;28;20194;-78
2024/02/17 14:55:29;;;;;;;0.50;0.50;;;14.80;99.90;;;;;;10398630;28;20276;-79
2024/02/17 15:00:31;;;;;;;0.70;0.70;;;14.90;99.90;;;;;;10419947;28;20198;-78
2024/02/17 15:05:36;;;;;;;0.50;0.50;;;14.80;99.90;;;;;;10420723;28;20707;-77
2024/02/17 15:10:39;;;;;;;0.60;0.60;;;14.70;99.90;;;;;;10402373;28;20589;-79
2024/02/17 15:15:47;;;;;;;0.60;0.60;;;14.60;99.90;;;;;;10419581;28;20217;-77
2024/02/17 15:20:51;;;;;;;0.50;0.50;;;14.60;99.90;;;;;;10418876;28;20197;-78
2024/02/17 15:25:53;;;;;;;0.60;0.60;;;14.60;99.90;;;;;;10416373;28;20234;-79
2024/02/17 15:30:56;;;;;;;0.50;0.50;;;14.60;99.80;;;;;;10414534;28;20198;-78
2024/02/17 15:36:01;;;;;;;0.50;0.50;;;14.50;99.90;;;;;;10411897;28;20633;-75
2024/02/17 15:41:04;;;;;;;0.70;0.70;;;14.50;99.90;;;;;;10415822;28;20198;-78
2024/02/17 15:46:09;;;;;;;0.50;0.50;;;14.40;99.90;;;;;;10410070;28;20673;-77
2024/02/17 15:51:13;;;;;;;0.60;0.60;;;14.30;99.90;;;;;;10415870;28;20557;-80
2024/02/17 15:56:16;;;;;;;0.50;0.50;;;14.30;99.90;;;;;;10408829;28;20682;-79
2024/02/17 16:01:20;;;;;;;0.50;0.50;;;14.20;99.90;;;;;;10413627;28;20198;-79
2024/02/17 16:06:23;;;;;;;0.40;0.40;;;14.20;99.10;;;;;;10413394;28;20213;-79
2024/02/17 16:11:26;;;;;;;0.60;0.60;;;14.00;99.70;;;;;;10410659;28;20599;-79
2024/02/17 16:16:29;;;;;;;0.50;0.50;;;14.00;99.90;;;;;;10390038;28;20314;-78
2024/02/17 16:21:35;;;;;;;0.50;0.50;;;13.90;99.90;;;;;;10404666;28;20200;-79
2024/02/17 16:26:39;;;;;;;0.50;0.50;;;13.90;99.90;;;;;;10398919;28;20226;-76
2024/02/17 16:31:42;;;;;;;0.60;0.60;;;13.80;99.90;;;;;;10403170;28;20201;-79
2024/02/17 16:36:46;;;;;;;0.50;0.50;;;13.70;99.90;;;;;;10401736;28;20714;-78
2024/02/17 16:41:50;;;;;;;0.77;0.77;;;13.60;99.90;;;;;;10394832;28;20675;-79
2024/02/17 16:46:53;;;;;;;0.40;0.40;;;13.50;99.90;;;;;;10390684;28;20229;-79
2024/02/17 16:51:57;;;;;;;0.50;0.50;;;13.40;99.90;;;;;;10407739;28;20202;-76
2024/02/17 16:56:59;;;;;;;0.50;0.50;;;13.20;99.90;;;;;;10405505;28;20213;-77
2024/02/17 17:02:02;;;;;;;0.50;0.50;;;13.20;99.90;;;;;;10376317;28;20218;-76
2024/02/17 17:07:08;;;;;;;0.50;0.50;;;13.10;99.90;;;;;;10404641;28;20754;-79
2024/02/17 17:12:11;;;;;;;0.40;0.40;;;13.00;99.90;;;;;;10407024;28;20202;-80
2024/02/17 17:17:13;;;;;;;0.50;0.50;;;12.80;99.90;;;;;;10412200;28;20609;-78
2024/02/17 17:22:17;;;;;;;0.40;0.40;;;12.60;99.90;;;;;;10412454;28;20198;-79
2024/02/17 17:27:19;;;;;;;0.50;0.50;;;12.40;99.90;;;;;;10397963;28;20221;-77
2024/02/17 17:32:22;;;;;;;0.50;0.50;;;12.20;99.90;;;;;;10412976;28;20691;-77
2024/02/17 17:37:25;;;;;;;0.60;0.60;;;12.00;99.90;;;;;;10395319;28;20699;-77
2024/02/17 17:42:28;;;;;;;0.57;0.57;;;11.90;99.90;;;;;;10409903;28;20202;-78
2024/02/17 17:47:31;;;;;;;0.40;0.40;;;11.70;99.90;;;;;;10395344;28;20226;-76
2024/02/17 17:52:34;;;;;;;0.50;0.50;;;11.60;99.90;;;;;;10417155;28;20201;-79
2024/02/17 17:57:37;;;;;;;0.20;0.20;;;11.50;99.90;;;;;;10409623;28;20242;-77
2024/02/17 18:02:40;;;;;;;0.13;0.13;;;11.40;99.90;;;;;;10413674;28;20205;-77
2024/02/17 18:07:45;;;;;;;0.50;0.50;;;11.30;99.90;;;;;;10411912;28;20226;-77
2024/02/17 18:12:48;;;;;;;0.60;0.60;;;11.20;99.90;;;;;;10397914;28;20205;-77
2024/02/17 18:17:50;;;;;;;0.47;0.47;;;11.10;99.90;;;;;;10402852;28;20224;-78
2024/02/17 18:22:54;;;;;;;0.60;0.60;;;11.00;99.90;;;;;;10413866;28;20564;-78
2024/02/17 18:27:56;;;;;;;0.50;0.50;;;11.00;99.90;;;;;;10412638;28;20233;-79
2024/02/17 18:32:59;;;;;;;0.70;0.70;;;10.80;99.90;;;;;;10412146;28;20671;-77
2024/02/17 18:38:02;;;;;;;0.70;0.70;;;10.70;99.90;;;;;;10411376;28;20252;-75
2024/02/17 18:43:05;;;;;;;0.63;0.63;;;10.60;99.90;;;;;;10410347;28;20197;-74
2024/02/17 18:48:08;;;;;;;0.50;0.50;;;;;;;;;;10409902;28;20237;-76
2024/02/17 18:53:13;;;;;;;0.50;0.50;;;10.60;99.90;;;;;;10391817;28;20205;-76
2024/02/17 18:58:15;;;;;;;0.60;0.60;;;10.70;99.90;;;;;;10415933;28;20702;-76
2024/02/17 19:03:17;;;;;;;0.40;0.40;;;10.70;99.90;;;;;;10412520;28;20719;-76
2024/02/17 19:08:21;;;;;;;0.70;0.70;;;10.70;99.90;;;;;;10414349;28;20213;-80
2024/02/17 19:13:23;;;;;;;0.50;0.50;;;10.80;99.90;;;;;;10410471;28;20198;-75
2024/02/17 19:18:26;;;;;;;0.50;0.50;;;10.80;99.90;;;;;;10412189;28;20599;-76
2024/02/17 19:23:29;;;;;;;0.40;0.40;;;10.80;99.90;;;;;;10409194;28;20210;-78
2024/02/17 19:28:32;;;;;;;0.50;0.50;;;10.90;99.90;;;;;;10392791;28;20225;-74
2024/02/17 19:33:35;;;;;;;0.70;0.70;;;11.00;99.90;;;;;;10410114;28;20225;-79
2024/02/17 19:38:39;;;;;;;0.60;0.60;;;10.90;99.90;;;;;;10408140;28;20202;-78
2024/02/17 19:43:43;;;;;;;0.60;0.60;;;11.00;99.90;;;;;;10390462;28;20221;-77
2024/02/17 19:48:45;;;;;;;0.50;0.50;;;10.90;99.90;;;;;;10412295;28;20348;-79
2024/02/17 19:53:51;;;;;;;0.40;0.40;;;10.80;99.90;;;;;;10414274;28;20225;-78
2024/02/17 19:58:53;;;;;;;0.50;0.50;;;10.80;99.90;;;;;;10405834;28;20198;-78
2024/02/17 20:03:56;;;;;;;0.60;0.60;;;10.80;99.90;;;;;;10412552;28;20391;-77
2024/02/17 20:09:00;;;;;;;0.70;0.70;;;10.80;99.90;;;;;;10394015;28;20229;-76
2024/02/17 20:14:04;;;;;;;0.50;0.50;;;10.80;99.90;;;;;;10411268;28;20247;-77
2024/02/17 20:19:07;;;;;;;0.60;0.60;;;10.70;99.90;;;;;;10407451;28;20190;-78
2024/02/17 20:24:11;;;;;;;0.27;0.27;;;10.70;99.90;;;;;;10410114;28;20236;-81
2024/02/17 20:29:13;;;;;;;0.70;0.70;;;10.60;99.90;;;;;;10403271;28;20221;-78
2024/02/17 20:34:16;;;;;;;0.50;0.50;;;10.60;99.90;;;;;;10390149;28;20543;-78
2024/02/17 20:39:21;;;;;;;0.90;0.90;;;10.50;99.90;;;;;;10407296;28;20198;-78
2024/02/17 20:44:23;;;;;;;0.73;0.73;;;10.50;99.90;;;;;;10407309;28;20214;-79
2024/02/17 20:49:26;;;;;;;0.60;0.60;;;10.40;99.90;;;;;;10413769;28;20229;-79
2024/02/17 20:54:29;;;;;;;0.37;0.37;;;10.30;99.90;;;;;;10406158;28;20221;-78
2024/02/17 20:59:32;;;;;;;0.50;0.50;;;10.20;99.90;;;;;;10392073;28;20206;-77
2024/02/17 21:04:34;;;;;;;0.70;0.70;;;10.10;99.90;;;;;;10390599;28;20221;-79
2024/02/17 21:09:38;;;;;;;0.63;0.63;;;10.10;99.90;;;;;;10410168;28;20275;-79
2024/02/17 21:14:40;;;;;;;0.90;0.90;;;10.00;99.90;;;;;;10407656;28;20220;-77
2024/02/17 21:19:44;;;;;;;0.67;0.67;;;10.00;99.90;;;;;;10409447;28;20190;-80
2024/02/17 21:24:47;;;;;;;0.90;0.90;;;10.00;99.90;;;;;;10390396;28;20228;-78
2024/02/17 21:29:50;;;;;;;0.80;0.80;;;10.00;99.90;;;;;;10408629;28;20226;-78
2024/02/17 21:34:52;;;;;;;0.60;0.60;;;9.90;99.90;;;;;;10406728;28;20230;-78
2024/02/17 21:39:56;;;;;;;0.73;0.73;;;9.90;99.90;;;;;;10406393;28;20197;-77
2024/02/17 21:44:59;;;;;;;0.70;0.70;;;9.90;99.90;;;;;;10401483;28;20218;-77
2024/02/17 21:50:02;;;;;;;0.60;0.60;;;9.90;99.90;;;;;;10440337;28;20221;-76
2024/02/17 21:55:08;;;;;;;0.87;0.87;;;9.90;99.90;;;;;;10453391;28;20228;-81
2024/02/17 22:00:12;;;;;;;0.70;0.70;;;9.90;99.90;;;;;;10435457;28;20252;-79
2024/02/17 22:05:15;;;;;;;0.60;0.60;;;9.80;99.90;;;;;;10417201;28;20691;-77
2024/02/17 22:10:18;;;;;;;0.80;0.80;;;9.80;99.90;;;;;;10419027;28;20221;-77
2024/02/17 22:15:21;;;;;;;0.70;0.70;;;9.70;99.90;;;;;;10415668;28;20210;-77
2024/02/17 22:20:23;;;;;;;0.60;0.60;;;9.80;99.90;;;;;;10412137;28;20619;-79
2024/02/17 22:25:27;;;;;;;0.70;0.70;;;9.80;99.90;;;;;;10413678;28;20225;-77
2024/02/17 22:30:29;;;;;;;0.60;0.60;;;9.90;99.90;;;;;;10413025;28;20292;-79
2024/02/17 22:35:31;;;;;;;0.70;0.70;;;9.90;99.90;;;;;;10409545;28;20225;-77
2024/02/17 22:40:35;;;;;;;0.97;0.97;;;10.00;99.90;;;;;;10393495;28;20201;-76
2024/02/17 22:45:37;;;;;;;0.70;0.70;;;10.00;99.90;;;;;;10410047;28;20217;-77
2024/02/17 22:50:40;;;;;;;0.60;0.60;;;10.00;99.90;;;;;;10415012;28;20213;-77
2024/02/17 22:55:44;;;;;;;0.80;0.80;;;10.10;99.90;;;;;;10413677;28;20632;-78
2024/02/17 23:00:47;;;;;;;0.60;0.60;;;10.00;99.90;;;;;;10414016;28;20555;-78
2024/02/17 23:05:49;;;;;;;0.77;0.77;;;10.00;99.90;;;;;;10393377;28;20229;-80
2024/02/17 23:10:53;;;;;;;0.87;0.87;;;9.90;99.90;;;;;;10412340;28;20284;-77
2024/02/17 23:15:56;;;;;;;0.80;0.80;;;10.00;99.90;;;;;;10409912;28;20230;-77
2024/02/17 23:20:59;;;;;;;0.80;0.80;;;9.80;99.90;;;;;;10410289;28;20202;-77
2024/02/17 23:26:03;;;;;;;0.90;0.90;;;9.80;99.90;;;;;;10390587;28;20229;-79
2024/02/17 23:31:06;;;;;;;0.90;0.90;;;9.70;99.90;;;;;;10391908;28;20230;-78
2024/02/17 23:36:11;;;;;;;0.70;0.70;;;9.70;99.90;;;;;;10409427;28;20232;-76
2024/02/17 23:41:15;;;;;;;0.80;0.80;;;9.80;99.90;;;;;;10408596;28;20194;-78
2024/02/17 23:46:18;;;;;;;0.80;0.80;;;9.80;99.90;;;;;;10407759;28;20213;-78
2024/02/17 23:51:20;;;;;;;0.67;0.67;;;9.90;99.90;;;;;;10407162;28;21356;-79
2024/02/17 23:56:24;;;;;;;0.90;0.90;;;9.90;99.90;;;;;;10406837;28;20221;-78
